Terminal Aerodrome Forecast
Issued by NWS Rapid City, SD

Home | Current Version | Previous Version | Graphics & Text | Print | Product List | Glossary On
Versions: 1 2 3 4 5 6 7 8 9 10 11 12 13 14 15
279
FTUS43 KUNR 191120
TAFRAP
TAF
KRAP 191120Z 1912/2012 18008KT P6SM BKN100 WS020/20040KT
     FM191300 22010KT P6SM BKN100
     FM191700 27015KT P6SM OVC100
     FM192100 32017G27KT P6SM -SHRA OVC050
     FM200300 31012KT P6SM SCT050=

USA.gov is the U.S. government's official web portal to all federal, state and local government web resources and services.